Ayr, Canada
Current Conditions -  °F | °C
As of 1:01 AM on Sunday 23 Nov 2014 (Local Time) from CYKF Reporting Station
Haze Haze  
Wind Chill: 33°   Ceiling: 1400
Heat Index: 41°   Visibility: 3mi
Dew Point: 41°   Wind: 14mph
Humidity: 100%   Direction: 230°SW
Pressure: 29.93"   Gusts: 20mph
Location:  43.28°N, 80.45°W
Report Text: CYKF 230601Z AUTO 23012G17KT 3SM BR SCT006 OVC014 05/05 A2993 RMK SLP145
Loading
Personal Weather Stations






























Interactive Weather Map New forecast layout! Learn more

10-Day Weather Forecast

Advertisements
Track Severe Weather on mobile